San Francisco, California
Traffic Map
Current Weather Conditions
San Francisco, California
Scattered Clouds
Scattered Clouds
64°
Feels Like: 64°
Wind Chill: 64° Ceiling: Unl
Heat Index: 64° Visibility: 10mi
Dew Point: 49° Wind: 16mph
Humidity: 58% Direction: 270° (W)
Pressure: 30.05in Gusts: 28mph
Raw Report DataKSFO 262356Z 27014G24KT 10SM FEW018 FEW033 SCT200 18/09 A3005 RMK AO2 SLP176 T01780094 10189 20156 56010
Traffic Incident Summary
Active as of:
Severity:
Category:
InformationThere was an issue retrieving the traffic information for this location. Please try a different location or try again shortly.
Advertisements